Time;durP1;ratioP1;P1;durP2;ratioP2;P2;SDS_P1;SDS_P2;PMS_P1;PMS_P2;Temp;Humidity;BMP_temperature;BMP_pressure;BME280_temperature;BME280_humidity;BME280_pressure;Samples;Min_cycle;Max_cycle;Signal;HPM_P1;HPM_P2
2022/08/25 00:01:10;;;;;;;;;10.33;10.33;;;;;;;;5043160;28;45467;-82
2022/08/25 00:03:45;;;;;;;;;9.00;9.00;;;;;;;;5041129;28;47490;-80
2022/08/25 00:06:11;;;;;;;;;13.67;10.67;;;;;;;;5039863;28;45662;-82
2022/08/25 00:08:40;;;;;;;;;9.00;7.33;;;;;;;;5044893;28;45364;-81
2022/08/25 00:11:10;;;;;;;;;11.67;10.67;;;;;;;;5030831;28;45686;-83
2022/08/25 00:13:36;;;;;;;;;9.67;9.33;;;;;;;;5026215;28;45519;-80
2022/08/25 00:16:01;;;;;;;;;7.67;7.67;;;;;;;;5038030;28;45577;-82
2022/08/25 00:18:26;;;;;;;;;10.33;9.33;;;;;;;;5056606;28;45360;-81
2022/08/25 00:20:52;;;;;;;;;11.67;11.00;;;;;;;;5049191;28;45409;-81
2022/08/25 00:23:18;;;;;;;;;7.00;7.00;;;;;;;;5053897;28;45394;-81
2022/08/25 00:25:43;;;;;;;;;9.00;9.00;;;;;;;;5047199;28;45508;-82
2022/08/25 00:28:09;;;;;;;;;11.67;9.00;;;;;;;;5033898;28;45388;-83
2022/08/25 00:30:35;;;;;;;;;12.33;11.33;;;;;;;;5053104;28;45355;-81
2022/08/25 00:33:01;;;;;;;;;12.67;10.67;;;;;;;;5031888;28;45557;-82
2022/08/25 00:35:26;;;;;;;;;11.67;10.00;;;;;;;;5040877;28;45823;-82
2022/08/25 00:37:51;;;;;;;;;11.33;10.00;;;;;;;;5082047;28;45076;-84
2022/08/25 00:40:17;;;;;;;;;8.67;8.67;;;;;;;;5064462;28;44767;-81
2022/08/25 00:42:43;;;;;;;;;9.00;9.00;;;;;;;;5064161;28;46622;-81
2022/08/25 00:45:14;;;;;;;;;9.67;9.67;;;;;;;;5053283;28;44690;-81
2022/08/25 00:47:42;;;;;;;;;10.00;9.33;;;;;;;;5066515;28;45127;-82
2022/08/25 00:50:09;;;;;;;;;9.00;9.00;;;;;;;;5062125;28;44737;-79
2022/08/25 00:52:40;;;;;;;;;10.33;10.33;;;;;;;;5080648;28;45268;-80
2022/08/25 00:55:10;;;;;;;;;9.33;9.00;;;;;;;;5086392;27;45183;-80
2022/08/25 00:57:43;;;;;;;;;10.00;9.33;;;;;;;;5080388;28;44764;-80
2022/08/25 01:00:18;;;;;;;;;7.67;5.67;;;;;;;;5059550;28;44823;-80
2022/08/25 01:02:46;;;;;;;;;13.00;13.00;;;;;;;;5064506;28;45203;-81
2022/08/25 01:05:21;;;;;;;;;11.33;10.33;;;;;;;;5075956;28;45207;-81
2022/08/25 01:07:51;;;;;;;;;13.33;10.67;;;;;;;;5081269;28;45438;-82
2022/08/25 01:10:26;;;;;;;;;16.67;15.00;;;;;;;;5082921;28;44823;-81
2022/08/25 01:15:53;;;;;;;;;17.00;12.67;;;;;;;;5069936;28;44809;-81
2022/08/25 01:18:19;;;;;;;;;15.67;13.67;;;;;;;;5064238;28;44763;-81
2022/08/25 01:20:47;;;;;;;;;12.33;10.67;;;;;;;;5081695;28;44729;-80
2022/08/25 01:23:13;;;;;;;;;9.67;9.33;;;;;;;;5081824;27;45042;-82
2022/08/25 01:25:39;;;;;;;;;7.67;7.67;;;;;;;;5066496;28;44703;-85
2022/08/25 01:28:05;;;;;;;;;13.67;13.67;;;;;;;;5085368;28;44760;-84
2022/08/25 01:30:30;;;;;;;;;11.00;10.33;;;;;;;;5065827;28;45321;-80
2022/08/25 01:32:56;;;;;;;;;10.33;10.33;;;;;;;;5062222;28;47080;-80
2022/08/25 01:35:21;;;;;;;;;12.00;11.67;;;;;;;;5081249;28;44733;-80
2022/08/25 01:37:47;;;;;;;;;10.67;10.67;;;;;;;;5100873;28;45259;-81
2022/08/25 01:40:12;;;;;;;;;9.00;9.00;;;;;;;;5061988;28;45716;-80
2022/08/25 01:42:53;;;;;;;;;10.67;9.33;;;;;;;;5077565;28;46031;-80
2022/08/25 01:45:19;;;;;;;;;13.67;12.00;;;;;;;;5081489;28;45117;-80
2022/08/25 01:47:46;;;;;;;;;9.67;9.67;;;;;;;;5081504;28;44784;-80
2022/08/25 01:50:14;;;;;;;;;8.67;8.67;;;;;;;;5063938;28;45294;-81
2022/08/25 01:53:01;;;;;;;;;16.00;13.00;;;;;;;;5061632;28;45527;-80
2022/08/25 01:55:27;;;;;;;;;11.00;10.33;;;;;;;;5079295;28;45319;-80
2022/08/25 01:57:52;;;;;;;;;11.67;10.33;;;;;;;;5080719;28;44746;-81
2022/08/25 02:00:19;;;;;;;;;12.33;11.33;;;;;;;;5062637;28;45668;-80
2022/08/25 02:02:47;;;;;;;;;10.67;9.33;;;;;;;;5081289;28;45477;-79
2022/08/25 02:05:14;;;;;;;;;9.33;9.33;;;;;;;;5083657;27;44839;-82
2022/08/25 02:07:40;;;;;;;;;11.00;10.00;;;;;;;;5070949;27;44686;-82
2022/08/25 02:10:06;;;;;;;;;10.67;10.00;;;;;;;;5078795;28;44752;-84
2022/08/25 02:12:31;;;;;;;;;16.00;14.00;;;;;;;;5048380;28;47295;-84
2022/08/25 02:14:58;;;;;;;;;9.33;9.33;;;;;;;;5064218;28;44759;-83
2022/08/25 02:17:23;;;;;;;;;12.67;10.00;;;;;;;;5026867;28;45424;-83
2022/08/25 02:19:55;;;;;;;;;12.67;11.67;;;;;;;;5039190;28;45483;-82
2022/08/25 02:22:24;;;;;;;;;15.33;9.67;;;;;;;;5042008;28;45332;-84
2022/08/25 02:24:52;;;;;;;;;8.33;8.00;;;;;;;;5041129;28;45506;-82
2022/08/25 02:27:18;;;;;;;;;9.33;9.33;;;;;;;;5036744;28;45535;-82
2022/08/25 02:29:44;;;;;;;;;11.67;9.33;;;;;;;;5025923;28;46915;-83
2022/08/25 02:32:18;;;;;;;;;10.33;10.33;;;;;;;;5024296;28;46824;-83
2022/08/25 02:34:44;;;;;;;;;9.67;9.67;;;;;;;;5032209;28;45492;-84
2022/08/25 02:37:15;;;;;;;;;15.00;13.00;;;;;;;;5026191;28;45440;-84
2022/08/25 02:39:49;;;;;;;;;9.33;9.33;;;;;;;;5027948;28;45575;-83
2022/08/25 02:42:17;;;;;;;;;14.33;10.67;;;;;;;;5044707;28;46286;-84
2022/08/25 02:44:42;;;;;;;;;11.00;11.00;;;;;;;;5043706;28;45390;-81
2022/08/25 02:47:08;;;;;;;;;10.00;9.67;;;;;;;;5019705;28;45600;-82
2022/08/25 02:49:36;;;;;;;;;13.67;10.00;;;;;;;;5026297;28;45415;-84
2022/08/25 02:52:02;;;;;;;;;10.00;8.00;;;;;;;;5027266;28;46587;-83
2022/08/25 02:54:27;;;;;;;;;10.67;9.67;;;;;;;;5047552;28;44829;-83
2022/08/25 02:56:53;;;;;;;;;8.33;8.33;;;;;;;;5048373;28;45974;-82
2022/08/25 02:59:21;;;;;;;;;13.67;10.33;;;;;;;;5029836;28;45290;-82
2022/08/25 03:01:51;;;;;;;;;10.00;9.00;;;;;;;;5027658;28;45534;-82
2022/08/25 03:04:17;;;;;;;;;11.00;9.33;;;;;;;;5025508;28;45544;-82
2022/08/25 03:06:45;;;;;;;;;13.33;10.67;;;;;;;;5030676;28;45395;-82
2022/08/25 03:09:11;;;;;;;;;11.00;9.67;;;;;;;;5031407;28;45462;-81
2022/08/25 03:11:38;;;;;;;;;14.00;12.00;;;;;;;;5047890;28;46329;-83
2022/08/25 03:14:08;;;;;;;;;11.33;11.33;;;;;;;;5042638;28;44770;-82
2022/08/25 03:16:37;;;;;;;;;12.00;10.67;;;;;;;;5021031;28;45347;-83
2022/08/25 03:19:05;;;;;;;;;11.67;9.33;;;;;;;;5031567;28;46130;-86
2022/08/25 03:21:36;;;;;;;;;13.00;10.00;;;;;;;;5030241;28;47105;-83
2022/08/25 03:24:02;;;;;;;;;9.33;9.33;;;;;;;;5021063;28;45719;-83
2022/08/25 03:26:53;;;;;;;;;9.67;9.33;;;;;;;;5035410;28;45432;-85
2022/08/25 03:29:21;;;;;;;;;18.00;13.33;;;;;;;;5049956;28;45471;-82
2022/08/25 03:31:47;;;;;;;;;13.00;11.00;;;;;;;;5032536;28;47466;-83
2022/08/25 03:34:17;;;;;;;;;15.33;13.67;;;;;;;;5050736;28;45814;-81
2022/08/25 03:36:54;;;;;;;;;9.33;8.33;;;;;;;;5052409;28;45607;-85
2022/08/25 03:39:29;;;;;;;;;12.33;11.00;;;;;;;;5036662;28;45654;-85
2022/08/25 03:42:01;;;;;;;;;14.33;10.33;;;;;;;;5055568;28;45292;-84
2022/08/25 03:45:10;;;;;;;;;12.33;12.33;;;;;;;;5027841;28;45426;-84
2022/08/25 03:47:42;;;;;;;;;9.33;8.67;;;;;;;;5049813;28;45368;-85
2022/08/25 03:50:09;;;;;;;;;10.33;10.00;;;;;;;;5048426;28;44739;-84
2022/08/25 03:52:36;;;;;;;;;8.67;7.67;;;;;;;;5047829;28;45832;-85
2022/08/25 03:55:04;;;;;;;;;9.67;9.00;;;;;;;;5025285;28;44814;-82
2022/08/25 04:01:09;;;;;;;;;;;;;;;;;;;;;
2022/08/25 04:03:51;;;;;;;;;9.67;8.33;;;;;;;;4954027;28;75629;-86
2022/08/25 04:06:45;;;;;;;;;;;;;;;;;;;;;
2022/08/25 04:13:00;;;;;;;;;9.33;9.33;;;;;;;;4917507;28;45518;-82
2022/08/25 04:16:27;;;;;;;;;;;;;;;;;;;;;
2022/08/25 04:21:39;;;;;;;;;10.33;9.67;;;;;;;;4969008;28;44746;-85
2022/08/25 04:25:03;;;;;;;;;12.33;12.33;;;;;;;;4968773;28;44865;-86
2022/08/25 04:31:09;;;;;;;;;10.33;9.33;;;;;;;;4916199;28;45773;-87
2022/08/25 04:37:06;;;;;;;;;;;;;;;;;;;;;
2022/08/25 04:39:44;;;;;;;;;12.00;9.67;;;;;;;;4990074;28;74745;-82
2022/08/25 04:42:26;;;;;;;;;13.00;11.00;;;;;;;;5017328;28;45575;-82
2022/08/25 04:45:04;;;;;;;;;12.67;12.67;;;;;;;;5065082;28;45353;-83
2022/08/25 04:47:35;;;;;;;;;14.67;12.33;;;;;;;;5054124;28;45400;-85
2022/08/25 04:50:01;;;;;;;;;16.33;14.33;;;;;;;;5049337;28;46630;-83
2022/08/25 04:52:29;;;;;;;;;16.00;12.00;;;;;;;;5065923;28;45427;-81
2022/08/25 04:54:58;;;;;;;;;14.67;12.00;;;;;;;;5052399;28;45530;-82
2022/08/25 04:57:27;;;;;;;;;14.00;10.33;;;;;;;;5049192;28;45518;-82
2022/08/25 04:59:53;;;;;;;;;14.33;13.67;;;;;;;;5064140;28;46148;-83
2022/08/25 05:02:19;;;;;;;;;14.67;13.33;;;;;;;;5034232;28;45284;-82
2022/08/25 05:04:44;;;;;;;;;18.00;14.67;;;;;;;;5062670;28;45936;-79
2022/08/25 05:07:19;;;;;;;;;20.67;16.67;;;;;;;;5043063;28;45885;-81
2022/08/25 05:09:44;;;;;;;;;17.67;14.00;;;;;;;;5060269;28;45441;-81
2022/08/25 05:12:14;;;;;;;;;21.33;19.00;;;;;;;;5076234;28;45436;-84
2022/08/25 05:14:51;;;;;;;;;21.00;18.67;;;;;;;;5052303;28;45184;-83
2022/08/25 05:23:42;;;;;;;;;21.33;17.67;;;;;;;;5067810;28;45488;-79
2022/08/25 05:26:35;;;;;;;;;18.33;15.67;;;;;;;;5053174;28;45354;-91
2022/08/25 05:29:03;;;;;;;;;17.67;16.33;;;;;;;;5044736;28;44889;-82
2022/08/25 05:31:29;;;;;;;;;18.33;17.00;;;;;;;;5052943;28;45878;-84
2022/08/25 05:33:55;;;;;;;;;11.67;11.67;;;;;;;;5044625;28;45217;-81
2022/08/25 05:36:58;;;;;;;;;;;;;;;;;;;;;
2022/08/25 05:40:12;;;;;;;;;52.67;40.33;;;;;;;;5058454;28;73659;-86
2022/08/25 05:42:44;;;;;;;;;14.67;12.67;;;;;;;;4928575;28;45741;-85
2022/08/25 05:45:16;;;;;;;;;11.33;11.33;;;;;;;;4955617;28;45591;-83
2022/08/25 05:47:43;;;;;;;;;13.00;13.00;;;;;;;;5050363;28;45396;-83
2022/08/25 05:50:19;;;;;;;;;14.00;11.33;;;;;;;;5057189;28;45368;-83
2022/08/25 05:52:45;;;;;;;;;10.67;9.33;;;;;;;;5065675;28;45787;-84
2022/08/25 05:55:14;;;;;;;;;11.33;10.00;;;;;;;;5045360;28;45676;-81
2022/08/25 05:57:40;;;;;;;;;10.33;10.33;;;;;;;;5042484;28;45651;-81
2022/08/25 06:00:11;;;;;;;;;10.33;10.33;;;;;;;;5066588;28;45402;-82
2022/08/25 06:02:54;;;;;;;;;11.00;11.00;;;;;;;;5050372;28;46204;-84
2022/08/25 06:05:22;;;;;;;;;9.00;8.33;;;;;;;;5040088;28;45600;-82
2022/08/25 06:07:54;;;;;;;;;12.33;11.33;;;;;;;;5061846;28;45355;-82
2022/08/25 06:10:20;;;;;;;;;13.00;12.00;;;;;;;;5062632;28;45624;-83
2022/08/25 06:12:47;;;;;;;;;10.67;9.33;;;;;;;;5062877;28;46139;-82
2022/08/25 06:15:17;;;;;;;;;10.67;9.67;;;;;;;;5073840;28;45431;-84
2022/08/25 06:17:46;;;;;;;;;12.33;12.33;;;;;;;;5025434;28;45450;-83
2022/08/25 06:20:13;;;;;;;;;11.33;11.33;;;;;;;;5019903;28;46939;-79
2022/08/25 06:22:39;;;;;;;;;10.67;10.00;;;;;;;;5034359;28;45926;-85
2022/08/25 06:25:06;;;;;;;;;12.00;11.00;;;;;;;;5053635;28;45729;-85
2022/08/25 06:27:32;;;;;;;;;14.00;11.33;;;;;;;;5024101;28;45681;-85
2022/08/25 06:29:58;;;;;;;;;15.00;12.33;;;;;;;;5023637;28;45743;-85
2022/08/25 06:32:29;;;;;;;;;10.67;10.67;;;;;;;;5042087;28;45659;-84
2022/08/25 06:34:54;;;;;;;;;11.33;11.00;;;;;;;;5024597;28;46198;-81
2022/08/25 06:37:20;;;;;;;;;13.67;11.67;;;;;;;;5025732;28;45459;-81
2022/08/25 06:39:46;;;;;;;;;13.00;11.00;;;;;;;;5016890;28;45921;-81
2022/08/25 06:42:11;;;;;;;;;13.67;11.00;;;;;;;;5042649;28;45455;-80
2022/08/25 06:44:37;;;;;;;;;9.67;9.67;;;;;;;;5042481;28;45026;-80
2022/08/25 06:47:14;;;;;;;;;15.00;13.33;;;;;;;;5042936;28;45520;-81
2022/08/25 06:49:58;;;;;;;;;7.67;7.67;;;;;;;;5028377;28;46804;-82
2022/08/25 06:52:33;;;;;;;;;;;;;;;;;;;;;
2022/08/25 06:54:59;;;;;;;;;12.67;12.67;;;;;;;;5039850;28;71340;-81
2022/08/25 06:57:25;;;;;;;;;13.67;13.00;;;;;;;;5021144;28;45645;-81
2022/08/25 06:59:51;;;;;;;;;13.00;12.00;;;;;;;;5034799;28;46049;-82
2022/08/25 07:02:16;;;;;;;;;12.00;10.00;;;;;;;;5034678;28;45408;-82
2022/08/25 07:04:42;;;;;;;;;12.00;12.00;;;;;;;;5028397;28;45447;-78
2022/08/25 07:07:13;;;;;;;;;13.67;10.33;;;;;;;;5042932;28;45467;-82
2022/08/25 07:09:39;;;;;;;;;7.67;7.67;;;;;;;;5035485;28;45494;-80
2022/08/25 07:12:05;;;;;;;;;9.00;9.00;;;;;;;;5045561;28;45598;-80
2022/08/25 07:14:31;;;;;;;;;16.00;12.33;;;;;;;;5033891;28;45885;-82
2022/08/25 07:16:57;;;;;;;;;11.00;11.00;;;;;;;;5061223;28;45417;-80
2022/08/25 07:19:22;;;;;;;;;10.00;10.00;;;;;;;;5070314;28;45791;-79
2022/08/25 07:21:49;;;;;;;;;11.00;9.67;;;;;;;;5061222;28;45466;-80
2022/08/25 07:24:15;;;;;;;;;14.00;12.00;;;;;;;;5062777;28;44792;-81
2022/08/25 07:26:42;;;;;;;;;11.67;11.00;;;;;;;;5045194;28;45661;-80
2022/08/25 07:29:15;;;;;;;;;12.00;12.00;;;;;;;;5064007;28;45826;-79
2022/08/25 07:31:40;;;;;;;;;12.00;12.00;;;;;;;;5043685;28;47738;-81
2022/08/25 07:36:56;;;;;;;;;16.00;14.67;;;;;;;;5055144;28;44786;-77
2022/08/25 07:39:28;;;;;;;;;15.00;13.00;;;;;;;;5047195;28;45798;-75
2022/08/25 07:41:56;;;;;;;;;11.67;11.67;;;;;;;;5059806;28;45790;-76
2022/08/25 07:44:37;;;;;;;;;15.00;13.33;;;;;;;;5039973;28;45859;-77
2022/08/25 07:47:03;;;;;;;;;13.33;13.00;;;;;;;;5037637;28;45483;-77
2022/08/25 07:49:41;;;;;;;;;14.00;12.00;;;;;;;;5071009;28;45509;-77
2022/08/25 07:52:34;;;;;;;;;14.00;13.00;;;;;;;;5062811;28;45373;-78
2022/08/25 07:55:00;;;;;;;;;14.00;13.67;;;;;;;;5053535;28;45349;-77
2022/08/25 07:57:51;;;;;;;;;;;;;;;;;;;;;
2022/08/25 08:00:30;;;;;;;;;13.67;11.33;;;;;;;;5050719;28;72763;-79
2022/08/25 08:03:03;;;;;;;;;15.67;14.00;;;;;;;;5043864;28;45645;-77
2022/08/25 08:05:28;;;;;;;;;13.00;11.00;;;;;;;;5058362;28;45474;-76
2022/08/25 08:07:59;;;;;;;;;11.00;10.00;;;;;;;;5059709;28;45479;-78
2022/08/25 08:14:18;;;;;;;;;8.67;8.67;;;;;;;;4929217;28;45942;-79
2022/08/25 08:23:26;;;;;;;;;10.33;10.33;;;;;;;;4906674;28;45882;-81
2022/08/25 08:26:01;;;;;;;;;13.33;12.67;;;;;;;;4944888;28;46211;-81
2022/08/25 08:28:28;;;;;;;;;13.67;11.33;;;;;;;;4961778;28;45013;-81
2022/08/25 08:37:36;;;;;;;;;16.00;14.33;;;;;;;;4941214;28;45400;-81
2022/08/25 08:43:28;;;;;;;;;18.33;12.67;;;;;;;;4893611;28;45603;-82
2022/08/25 08:49:03;;;;;;;;;14.00;13.00;;;;;;;;4949523;28;45549;-77
2022/08/25 08:51:57;;;;;;;;;14.25;11.75;;;;;;;;5032316;28;45400;-79
2022/08/25 08:54:24;;;;;;;;;13.00;12.00;;;;;;;;5034039;28;45975;-78
2022/08/25 08:56:54;;;;;;;;;12.67;12.00;;;;;;;;5041527;28;45537;-78
2022/08/25 08:59:30;;;;;;;;;12.00;12.00;;;;;;;;5023113;28;45834;-79
2022/08/25 09:02:00;;;;;;;;;12.00;12.00;;;;;;;;5033193;28;45615;-81
2022/08/25 09:04:38;;;;;;;;;11.67;11.00;;;;;;;;5020981;28;45698;-79
2022/08/25 09:07:08;;;;;;;;;12.00;10.67;;;;;;;;5019982;28;45697;-81
2022/08/25 09:09:40;;;;;;;;;8.50;7.00;;;;;;;;5031641;28;46565;-80
2022/08/25 09:12:18;;;;;;;;;8.67;8.33;;;;;;;;5014550;28;45863;-81
2022/08/25 09:14:48;;;;;;;;;12.67;11.67;;;;;;;;5041269;28;45549;-80
2022/08/25 09:17:18;;;;;;;;;9.00;8.00;;;;;;;;5045185;28;45587;-84
2022/08/25 09:19:44;;;;;;;;;8.33;8.33;;;;;;;;5053033;28;45499;-80
2022/08/25 09:22:11;;;;;;;;;9.33;9.33;;;;;;;;5041055;28;45767;-80
2022/08/25 09:24:40;;;;;;;;;9.67;9.67;;;;;;;;5054235;28;45547;-81
2022/08/25 09:27:36;;;;;;;;;10.00;8.00;;;;;;;;5064594;28;45504;-82
2022/08/25 09:30:19;;;;;;;;;9.33;9.33;;;;;;;;4969174;28;45908;-87
2022/08/25 09:32:52;;;;;;;;;9.00;8.00;;;;;;;;5061747;28;45470;-82
2022/08/25 09:35:26;;;;;;;;;7.67;7.67;;;;;;;;5055837;28;45553;-82
2022/08/25 09:38:20;;;;;;;;;8.67;8.00;;;;;;;;5038758;28;45911;-81
2022/08/25 09:41:25;;;;;;;;;6.00;6.00;;;;;;;;5055375;28;45437;-80
2022/08/25 09:47:17;;;;;;;;;8.33;8.33;;;;;;;;5018366;28;45516;-77
2022/08/25 09:50:03;;;;;;;;;7.33;6.67;;;;;;;;5032867;28;46028;-76
2022/08/25 09:52:34;;;;;;;;;6.00;6.00;;;;;;;;5036360;28;45895;-76
2022/08/25 09:55:17;;;;;;;;;4.67;4.67;;;;;;;;5042744;28;45415;-79
2022/08/25 09:57:48;;;;;;;;;11.33;8.00;;;;;;;;5055215;28;45708;-76
2022/08/25 10:00:30;;;;;;;;;5.67;5.67;;;;;;;;5036507;28;45474;-76
2022/08/25 10:03:07;;;;;;;;;7.00;7.00;;;;;;;;5045959;28;45995;-75
2022/08/25 10:05:36;;;;;;;;;6.00;6.00;;;;;;;;5033389;28;45760;-76
2022/08/25 10:08:11;;;;;;;;;4.67;4.67;;;;;;;;5053664;28;45384;-80
2022/08/25 10:11:02;;;;;;;;;6.00;5.00;;;;;;;;5054008;28;45844;-84
2022/08/25 10:13:41;;;;;;;;;5.67;5.67;;;;;;;;5064199;28;45525;-81
2022/08/25 10:16:21;;;;;;;;;;;;;;;;;;;;;
2022/08/25 10:28:52;;;;;;;;;5.00;5.00;;;;;;;;4957314;28;44760;-82
2022/08/25 10:31:25;;;;;;;;;6.00;6.00;;;;;;;;4965779;28;45217;-82
2022/08/25 10:34:19;;;;;;;;;6.00;6.00;;;;;;;;4960810;28;44831;-83
2022/08/25 10:36:52;;;;;;;;;5.33;4.33;;;;;;;;4984969;22;45587;-75
2022/08/25 10:39:23;;;;;;;;;4.33;4.33;;;;;;;;5085904;27;45688;-70
2022/08/25 10:41:56;;;;;;;;;7.33;7.33;;;;;;;;5078609;27;45294;-73
2022/08/25 10:47:37;;;;;;;;;8.00;7.00;;;;;;;;5085091;27;45730;-73
2022/08/25 10:50:06;;;;;;;;;6.67;6.67;;;;;;;;5081220;27;45573;-72
2022/08/25 10:52:37;;;;;;;;;8.33;8.33;;;;;;;;5067104;27;45388;-70
2022/08/25 10:55:12;;;;;;;;;11.00;10.00;;;;;;;;5082944;27;46181;-72
2022/08/25 10:57:43;;;;;;;;;8.33;8.00;;;;;;;;5080212;27;45823;-72
2022/08/25 11:00:12;;;;;;;;;7.00;7.00;;;;;;;;5086461;27;45759;-72
2022/08/25 11:02:56;;;;;;;;;9.00;9.00;;;;;;;;5091054;27;45326;-74
2022/08/25 11:05:40;;;;;;;;;9.00;8.00;;;;;;;;5073800;27;46076;-70
2022/08/25 11:08:28;;;;;;;;;8.33;8.33;;;;;;;;5088505;27;45343;-73
2022/08/25 11:11:01;;;;;;;;;8.00;8.00;;;;;;;;5084598;27;45863;-72
2022/08/25 11:13:26;;;;;;;;;9.33;9.00;;;;;;;;5087893;27;45765;-71
2022/08/25 11:15:55;;;;;;;;;8.00;8.00;;;;;;;;5089733;27;45672;-71
2022/08/25 11:18:21;;;;;;;;;8.33;6.67;;;;;;;;5088540;27;45937;-72
2022/08/25 11:20:50;;;;;;;;;8.33;8.00;;;;;;;;5095002;27;45796;-72
2022/08/25 11:23:23;;;;;;;;;8.00;8.00;;;;;;;;5094410;27;45856;-73
2022/08/25 11:25:50;;;;;;;;;7.00;7.00;;;;;;;;5103255;27;45422;-73
2022/08/25 11:28:29;;;;;;;;;6.00;6.00;;;;;;;;5085582;27;46465;-74
2022/08/25 11:30:56;;;;;;;;;6.33;6.33;;;;;;;;5093031;27;45629;-72
2022/08/25 11:33:23;;;;;;;;;7.33;7.33;;;;;;;;5095307;27;45334;-71
2022/08/25 11:35:52;;;;;;;;;8.00;8.00;;;;;;;;5102535;27;45369;-68
2022/08/25 11:38:36;;;;;;;;;9.00;9.00;;;;;;;;5089919;27;45803;-68
2022/08/25 11:41:10;;;;;;;;;8.00;8.00;;;;;;;;5090965;27;45500;-70
2022/08/25 11:43:44;;;;;;;;;12.33;9.67;;;;;;;;5088276;27;45831;-69
2022/08/25 11:46:21;;;;;;;;;10.33;9.33;;;;;;;;5102673;27;45495;-71
2022/08/25 11:48:56;;;;;;;;;10.00;9.33;;;;;;;;5088018;27;45557;-71
2022/08/25 11:51:39;;;;;;;;;10.00;9.00;;;;;;;;5095572;27;46399;-71
2022/08/25 11:54:26;;;;;;;;;9.00;9.00;;;;;;;;5095713;27;45298;-71
2022/08/25 11:56:53;;;;;;;;;10.67;9.33;;;;;;;;5087256;27;45992;-71
2022/08/25 11:59:37;;;;;;;;;11.67;9.33;;;;;;;;5093662;27;46114;-70
2022/08/25 12:02:02;;;;;;;;;9.00;6.00;;;;;;;;5094989;27;45752;-71
2022/08/25 12:04:32;;;;;;;;;10.33;8.00;;;;;;;;5094150;27;45428;-71
2022/08/25 12:07:09;;;;;;;;;8.00;7.00;;;;;;;;5096680;27;45815;-72
2022/08/25 12:09:50;;;;;;;;;8.00;8.00;;;;;;;;5075247;27;47688;-72
2022/08/25 12:12:34;;;;;;;;;8.67;7.67;;;;;;;;5093464;27;45359;-72
2022/08/25 12:15:15;;;;;;;;;7.67;7.67;;;;;;;;5089913;27;45599;-72
2022/08/25 12:17:40;;;;;;;;;8.33;7.33;;;;;;;;5077772;27;46036;-71
2022/08/25 12:20:06;;;;;;;;;7.33;7.00;;;;;;;;5089395;27;45876;-71
2022/08/25 12:22:31;;;;;;;;;7.00;7.00;;;;;;;;5085154;27;45345;-72
2022/08/25 12:24:56;;;;;;;;;8.00;7.00;;;;;;;;5090256;27;45424;-71
2022/08/25 12:27:40;;;;;;;;;8.33;7.00;;;;;;;;5096123;27;45341;-70
2022/08/25 12:30:14;;;;;;;;;5.75;5.75;;;;;;;;5078044;27;45394;-70
2022/08/25 12:32:51;;;;;;;;;6.67;6.67;;;;;;;;5084767;27;45384;-71
2022/08/25 12:35:23;;;;;;;;;7.67;7.67;;;;;;;;5084819;27;45231;-72
2022/08/25 12:37:56;;;;;;;;;6.00;6.00;;;;;;;;5087952;27;45997;-71
2022/08/25 12:40:33;;;;;;;;;7.67;7.67;;;;;;;;5089935;27;46283;-69
2022/08/25 12:43:10;;;;;;;;;7.67;7.67;;;;;;;;5073750;27;45460;-72
2022/08/25 12:45:36;;;;;;;;;9.33;9.33;;;;;;;;5092950;27;45919;-73
2022/08/25 12:48:19;;;;;;;;;9.00;7.33;;;;;;;;5087260;27;45734;-71
2022/08/25 12:50:49;;;;;;;;;6.67;6.67;;;;;;;;5083919;27;45481;-72
2022/08/25 12:53:21;;;;;;;;;6.33;6.33;;;;;;;;5112201;27;45434;-69
2022/08/25 12:55:48;;;;;;;;;12.00;8.00;;;;;;;;5089597;27;45566;-71
2022/08/25 12:58:14;;;;;;;;;7.33;7.33;;;;;;;;5091805;27;45711;-72
2022/08/25 13:00:45;;;;;;;;;9.67;8.00;;;;;;;;5091333;27;45692;-74
2022/08/25 13:03:13;;;;;;;;;7.00;7.00;;;;;;;;5085509;27;45434;-72
2022/08/25 13:05:41;;;;;;;;;7.00;7.00;;;;;;;;5102329;27;45762;-72
2022/08/25 13:08:18;;;;;;;;;9.33;9.33;;;;;;;;5084137;27;45646;-73
2022/08/25 13:10:46;;;;;;;;;6.00;6.00;;;;;;;;5092881;27;46197;-71
2022/08/25 13:13:30;;;;;;;;;9.33;6.67;;;;;;;;5086707;27;45341;-69
2022/08/25 13:15:58;;;;;;;;;8.67;8.67;;;;;;;;5081322;27;45908;-69
2022/08/25 13:18:25;;;;;;;;;6.33;6.33;;;;;;;;5080153;27;45331;-72
2022/08/25 13:21:02;;;;;;;;;7.67;7.67;;;;;;;;5067453;27;47258;-70
2022/08/25 13:23:27;;;;;;;;;7.00;7.00;;;;;;;;5084721;27;45704;-69
2022/08/25 13:25:54;;;;;;;;;7.67;7.67;;;;;;;;5087711;27;45591;-70
2022/08/25 13:28:24;;;;;;;;;6.00;6.00;;;;;;;;5066778;27;46806;-70
2022/08/25 13:31:04;;;;;;;;;9.33;8.33;;;;;;;;5068273;27;46657;-71
2022/08/25 13:33:30;;;;;;;;;7.67;7.00;;;;;;;;5085517;27;45490;-69
2022/08/25 13:38:41;;;;;;;;;7.33;7.33;;;;;;;;5095081;27;45470;-72
2022/08/25 13:41:08;;;;;;;;;7.00;7.00;;;;;;;;5085786;27;46579;-74
2022/08/25 13:43:34;;;;;;;;;7.00;7.00;;;;;;;;5093525;27;45391;-73
2022/08/25 13:45:59;;;;;;;;;7.67;7.67;;;;;;;;5065317;27;45932;-73
2022/08/25 13:48:51;;;;;;;;;8.33;8.33;;;;;;;;5087250;27;45753;-72
2022/08/25 13:51:18;;;;;;;;;8.00;8.00;;;;;;;;5080305;27;46342;-75
2022/08/25 13:53:48;;;;;;;;;9.33;8.67;;;;;;;;5090713;27;45666;-72
2022/08/25 13:56:21;;;;;;;;;7.00;6.67;;;;;;;;5080016;27;45458;-72
2022/08/25 13:58:46;;;;;;;;;6.67;6.33;;;;;;;;5087460;27;45547;-72
2022/08/25 14:01:24;;;;;;;;;6.00;6.00;;;;;;;;5092680;27;45660;-68
2022/08/25 14:03:50;;;;;;;;;6.33;6.33;;;;;;;;5090563;27;45690;-71
2022/08/25 14:06:15;;;;;;;;;7.00;6.00;;;;;;;;5070895;27;45545;-68
2022/08/25 14:08:42;;;;;;;;;5.00;5.00;;;;;;;;5085683;27;45350;-70
2022/08/25 14:11:13;;;;;;;;;5.50;5.50;;;;;;;;5080726;27;45728;-69
2022/08/25 14:13:39;;;;;;;;;6.00;6.00;;;;;;;;5074622;27;45521;-69
2022/08/25 14:16:10;;;;;;;;;5.33;5.33;;;;;;;;5096306;27;45802;-71
2022/08/25 14:18:36;;;;;;;;;6.00;6.00;;;;;;;;5079195;27;45980;-70
2022/08/25 14:21:07;;;;;;;;;5.33;4.00;;;;;;;;5081003;27;46356;-71
2022/08/25 14:23:34;;;;;;;;;4.00;4.00;;;;;;;;5075141;27;45586;-70
2022/08/25 14:25:59;;;;;;;;;6.00;6.00;;;;;;;;5080957;27;45776;-69
2022/08/25 14:28:26;;;;;;;;;4.00;4.00;;;;;;;;5081158;27;45806;-71
2022/08/25 14:30:57;;;;;;;;;4.33;4.33;;;;;;;;5087620;27;46003;-68
2022/08/25 14:33:25;;;;;;;;;4.00;4.00;;;;;;;;5086665;27;45747;-70
2022/08/25 14:35:52;;;;;;;;;8.00;6.00;;;;;;;;5084282;27;45429;-71
2022/08/25 14:38:18;;;;;;;;;2.50;1.75;;;;;;;;5083230;27;45898;-74
2022/08/25 14:40:43;;;;;;;;;6.00;4.50;;;;;;;;5090616;27;45477;-71
2022/08/25 14:43:09;;;;;;;;;5.33;5.33;;;;;;;;5085805;27;45669;-71
2022/08/25 14:45:36;;;;;;;;;4.00;4.00;;;;;;;;5081683;27;45941;-69
2022/08/25 14:48:06;;;;;;;;;5.67;5.67;;;;;;;;5088006;27;45850;-73
2022/08/25 14:50:32;;;;;;;;;3.00;3.00;;;;;;;;5091399;27;46805;-71
2022/08/25 14:52:58;;;;;;;;;5.00;5.00;;;;;;;;5070084;27;45689;-69
2022/08/25 14:55:23;;;;;;;;;6.00;4.25;;;;;;;;5093297;27;45643;-73
2022/08/25 14:57:49;;;;;;;;;4.00;4.00;;;;;;;;5088741;27;45883;-72
2022/08/25 15:00:14;;;;;;;;;4.00;4.00;;;;;;;;5063751;28;47974;-70
2022/08/25 15:02:41;;;;;;;;;4.25;3.00;;;;;;;;5084092;27;45786;-70
2022/08/25 15:05:10;;;;;;;;;5.67;4.00;;;;;;;;5074797;27;45498;-71
2022/08/25 15:10:19;;;;;;;;;4.00;4.00;;;;;;;;5082525;27;45680;-69
2022/08/25 15:12:45;;;;;;;;;5.50;4.75;;;;;;;;5088016;27;45798;-67
2022/08/25 15:15:11;;;;;;;;;7.33;7.00;;;;;;;;5082648;27;45778;-65
2022/08/25 15:17:38;;;;;;;;;3.00;3.00;;;;;;;;5058394;28;45500;-64
2022/08/25 15:20:06;;;;;;;;;5.00;5.00;;;;;;;;5089998;27;45472;-63
2022/08/25 15:22:31;;;;;;;;;5.33;5.33;;;;;;;;5088012;27;45492;-72
2022/08/25 15:24:57;;;;;;;;;7.00;5.00;;;;;;;;5087972;27;45746;-72
2022/08/25 15:27:22;;;;;;;;;6.67;5.67;;;;;;;;5094211;27;45398;-72
2022/08/25 15:29:47;;;;;;;;;3.33;3.33;;;;;;;;5081262;27;45717;-74
2022/08/25 15:32:13;;;;;;;;;4.75;4.75;;;;;;;;5087819;27;45769;-70
2022/08/25 15:34:38;;;;;;;;;2.25;2.25;;;;;;;;5086005;27;45390;-71
2022/08/25 15:37:09;;;;;;;;;4.67;4.67;;;;;;;;5080964;27;45680;-71
2022/08/25 15:39:34;;;;;;;;;5.67;5.67;;;;;;;;5094804;27;46344;-73
2022/08/25 15:42:01;;;;;;;;;5.00;5.00;;;;;;;;5092756;27;45644;-73
2022/08/25 15:44:26;;;;;;;;;4.25;4.25;;;;;;;;5083297;27;45752;-72
2022/08/25 15:46:52;;;;;;;;;5.25;4.50;;;;;;;;5082756;27;45775;-73
2022/08/25 15:49:18;;;;;;;;;4.50;4.50;;;;;;;;5107159;27;47648;-74
2022/08/25 15:51:44;;;;;;;;;4.00;4.00;;;;;;;;5094357;27;45695;-72
2022/08/25 15:54:09;;;;;;;;;5.67;4.67;;;;;;;;5089062;27;45730;-73
2022/08/25 15:56:34;;;;;;;;;4.00;4.00;;;;;;;;5071773;27;45432;-71
2022/08/25 15:59:02;;;;;;;;;4.00;4.00;;;;;;;;5067704;27;47235;-71
2022/08/25 16:01:28;;;;;;;;;4.33;4.33;;;;;;;;5082480;27;45693;-72
2022/08/25 16:03:54;;;;;;;;;3.00;3.00;;;;;;;;5095785;27;45513;-72
2022/08/25 16:06:19;;;;;;;;;3.67;3.67;;;;;;;;5085469;27;45394;-73
2022/08/25 16:08:45;;;;;;;;;4.67;4.67;;;;;;;;5070935;27;46996;-73
2022/08/25 16:11:21;;;;;;;;;5.00;5.00;;;;;;;;5074409;27;45683;-73
2022/08/25 16:13:47;;;;;;;;;3.00;3.00;;;;;;;;5089955;27;45793;-73
2022/08/25 16:16:14;;;;;;;;;5.00;4.00;;;;;;;;5078160;27;45961;-72
2022/08/25 16:18:39;;;;;;;;;4.00;4.00;;;;;;;;5094309;27;45686;-74